首页
METAR-TAF:

METAR-TAF

机场 :

Redstone Arsenal, 阿拉巴马州, 美国

纬度: 34-40-43N, 经度: 086-41-05W, 海拔: 209米

当前天气观测

该预报发布于41分钟前的09:58 UTC
风速4节,风向东南
温度 21°C
湿度 88%
气压 1016 hPa
能見度: 16.1公里
阴天层高于13000英尺

METAR: KHUA 260958Z AUTO 14004KT 10SM OVC130 21/19 A2999 RMK AO2 SLPNO T02140190

时间: 05:39 (10:39 UTC)


TAF: 丢失

超过4000个机场的气象观测和天气预报(METAR&TAF报告)。

可查询的气象台以黄色和红色小点在地图上表示。

将鼠标移到小点上方,可查看气象台名称。

然后点击查看天气观测和预报。

如需切换地图:点击带黑十字的绿色按钮放大地图;点击带横线的绿色按钮缩小地图;或者点击绿色箭头查看邻近地区的地图。


METAR-TAF: